createdAt,value
2022-09-04T00:01:19.838Z,1.40
2022-09-04T00:03:54.554Z,1.80
2022-09-04T00:06:33.706Z,2.17
2022-09-04T00:09:11.977Z,1.92
2022-09-04T00:11:47.450Z,1.98
2022-09-04T00:14:21.038Z,1.30
2022-09-04T00:16:55.670Z,1.83
2022-09-04T00:19:31.969Z,2.08
2022-09-04T00:22:03.009Z,1.83
2022-09-04T00:24:35.850Z,1.52
2022-09-04T00:27:10.535Z,1.90
2022-09-04T00:29:48.397Z,1.65
2022-09-04T00:32:25.310Z,2.25
2022-09-04T00:35:03.522Z,2.30
2022-09-04T00:37:40.026Z,2.20
2022-09-04T00:40:14.973Z,1.85
2022-09-04T00:42:55.937Z,2.10
2022-09-04T00:45:41.897Z,1.45
2022-09-04T00:48:22.677Z,2.45
2022-09-04T00:51:06.691Z,1.98
2022-09-04T00:53:56.598Z,2.15
2022-09-04T00:56:49.527Z,1.95
2022-09-04T00:59:30.637Z,2.40
2022-09-04T01:02:08.188Z,1.60
2022-09-04T01:04:43.070Z,1.98
2022-09-04T01:07:24.643Z,1.92
2022-09-04T01:10:06.466Z,1.67
2022-09-04T01:12:41.475Z,2.30
2022-09-04T01:15:16.650Z,2.28
2022-09-04T01:17:54.697Z,2.17
2022-09-04T01:20:34.436Z,1.92
2022-09-04T01:23:17.003Z,1.73
2022-09-04T01:25:59.813Z,2.25
2022-09-04T01:28:32.998Z,2.22
2022-09-04T01:31:06.969Z,2.20
2022-09-04T01:33:41.355Z,2.10
2022-09-04T01:36:18.422Z,3.00
2022-09-04T01:38:50.862Z,1.90
2022-09-04T01:41:25.083Z,2.00
2022-09-04T01:43:53.334Z,2.00
2022-09-04T01:46:34.706Z,1.60
2022-09-04T01:49:08.337Z,1.88
2022-09-04T01:51:43.418Z,2.42
2022-09-04T01:54:27.142Z,2.22
2022-09-04T01:57:09.362Z,2.47
2022-09-04T01:59:53.443Z,2.50
2022-09-04T02:02:26.492Z,2.00
2022-09-04T02:05:08.188Z,2.00
2022-09-04T02:07:44.356Z,2.30
2022-09-04T02:10:23.481Z,1.95
2022-09-04T02:13:08.434Z,2.53
2022-09-04T02:15:44.563Z,1.83
2022-09-04T02:18:20.047Z,2.00
2022-09-04T02:20:56.327Z,2.40
2022-09-04T02:23:35.212Z,1.90
2022-09-04T02:26:13.126Z,2.22
2022-09-04T02:28:52.981Z,2.70
2022-09-04T02:31:31.194Z,2.45
2022-09-04T02:34:08.164Z,3.20
2022-09-04T02:36:43.195Z,2.75
2022-09-04T02:39:20.088Z,2.75
2022-09-04T02:42:00.517Z,2.00
2022-09-04T02:44:44.899Z,2.20
2022-09-04T02:47:23.575Z,2.08
2022-09-04T02:50:00.007Z,2.78
2022-09-04T02:52:43.193Z,2.00
2022-09-04T02:55:19.187Z,2.70
2022-09-04T02:58:02.420Z,2.30
2022-09-04T03:00:41.701Z,2.47
2022-09-04T03:03:14.147Z,1.80
2022-09-04T03:05:47.715Z,3.13
2022-09-04T03:08:19.303Z,3.28
2022-09-04T03:10:54.071Z,2.60
2022-09-04T03:13:28.956Z,2.97
2022-09-04T03:16:04.768Z,2.72
2022-09-04T03:18:51.559Z,2.15
2022-09-04T03:21:24.675Z,2.60
2022-09-04T03:23:57.926Z,2.30
2022-09-04T03:26:29.179Z,2.60
2022-09-04T03:29:06.227Z,2.13
2022-09-04T03:31:41.551Z,2.78
2022-09-04T03:34:24.504Z,2.33
2022-09-04T03:37:06.744Z,2.47
2022-09-04T03:39:44.568Z,2.63
2022-09-04T03:42:20.859Z,2.22
2022-09-04T03:45:03.516Z,3.15
2022-09-04T03:47:43.573Z,2.83
2022-09-04T03:50:18.516Z,2.85
2022-09-04T03:52:57.311Z,2.55
2022-09-04T03:55:44.848Z,2.00
2022-09-04T03:58:23.748Z,2.55
2022-09-04T04:01:05.147Z,2.40
2022-09-04T04:03:51.435Z,2.50
2022-09-04T04:06:26.447Z,2.67
2022-09-04T04:09:10.267Z,2.33
2022-09-04T04:12:02.643Z,2.25
2022-09-04T04:14:46.003Z,3.00
2022-09-04T04:17:32.706Z,2.38
2022-09-04T04:20:16.747Z,2.30
2022-09-04T04:22:58.235Z,2.28
2022-09-04T04:25:47.350Z,2.20
2022-09-04T04:28:33.151Z,2.53
2022-09-04T04:31:10.573Z,1.98
2022-09-04T04:33:48.211Z,2.75
2022-09-04T04:36:29.551Z,2.55
2022-09-04T04:39:14.292Z,2.75
2022-09-04T04:42:08.943Z,2.45
2022-09-04T04:45:04.939Z,2.65
2022-09-04T04:47:55.800Z,2.47
2022-09-04T04:50:33.588Z,2.80
2022-09-04T04:53:14.335Z,2.65
2022-09-04T04:55:50.167Z,2.92
2022-09-04T04:58:47.695Z,2.10
2022-09-04T05:01:28.852Z,2.35
2022-09-04T05:04:07.668Z,2.85
2022-09-04T05:06:40.709Z,3.28
2022-09-04T05:09:17.346Z,2.47
2022-09-04T05:11:53.746Z,2.05
2022-09-04T05:14:34.064Z,2.20
2022-09-04T05:17:15.124Z,2.50
2022-09-04T05:19:50.423Z,2.90
2022-09-04T05:22:26.120Z,2.72
2022-09-04T05:25:03.219Z,2.40
2022-09-04T05:27:42.179Z,2.50
2022-09-04T05:30:15.475Z,2.88
2022-09-04T05:32:59.579Z,2.97
2022-09-04T05:35:35.562Z,2.42
2022-09-04T05:38:10.832Z,2.95
2022-09-04T05:41:00.890Z,2.40
2022-09-04T05:43:42.608Z,3.08
2022-09-04T05:46:18.737Z,2.20
2022-09-04T05:48:57.942Z,2.55
2022-09-04T05:51:50.771Z,2.28
2022-09-04T05:54:37.938Z,2.30
2022-09-04T05:57:18.626Z,2.28
2022-09-04T06:00:02.958Z,2.33
2022-09-04T06:03:32.501Z,2.65
2022-09-04T06:06:20.200Z,2.00
2022-09-04T06:08:59.855Z,2.25
2022-09-04T06:11:40.697Z,1.70
2022-09-04T06:14:24.794Z,2.10
2022-09-04T06:17:07.084Z,1.97
2022-09-04T06:19:48.915Z,1.80
2022-09-04T06:22:31.571Z,1.83
2022-09-04T06:25:14.412Z,1.53
2022-09-04T06:27:58.962Z,1.60
2022-09-04T06:30:31.188Z,1.60
2022-09-04T06:33:18.586Z,1.13
2022-09-04T06:36:11.846Z,1.63
2022-09-04T06:38:50.794Z,1.50
2022-09-04T06:41:35.458Z,1.63
2022-09-04T06:44:12.825Z,1.33
2022-09-04T06:46:48.551Z,1.00
2022-09-04T06:49:26.147Z,1.23
2022-09-04T06:52:12.608Z,1.30
2022-09-04T06:54:52.280Z,1.10
2022-09-04T06:57:38.454Z,1.00
2022-09-04T07:00:08.730Z,1.37
2022-09-04T07:02:51.506Z,1.23
2022-09-04T07:05:28.610Z,1.10
2022-09-04T07:08:09.282Z,1.37
2022-09-04T07:10:43.484Z,0.93
2022-09-04T07:13:28.202Z,1.47
2022-09-04T07:16:09.875Z,0.70
2022-09-04T07:19:00.944Z,1.00
2022-09-04T07:21:35.435Z,0.70
2022-09-04T07:24:12.508Z,1.53
2022-09-04T07:26:48.946Z,1.00
2022-09-04T07:29:34.089Z,0.97
2022-09-04T07:32:06.907Z,1.10
2022-09-04T07:34:44.358Z,0.90
2022-09-04T07:37:27.634Z,1.17
2022-09-04T07:40:08.325Z,1.10
2022-09-04T07:42:43.071Z,1.00
2022-09-04T07:45:22.388Z,1.10
2022-09-04T07:47:58.327Z,0.97
2022-09-04T07:50:30.774Z,0.93
2022-09-04T07:53:17.225Z,1.20
2022-09-04T07:55:49.178Z,1.00
2022-09-04T07:58:50.271Z,0.77
2022-09-04T08:01:40.201Z,1.10
2022-09-04T08:04:26.414Z,1.00
2022-09-04T08:06:59.902Z,0.90
2022-09-04T08:09:41.468Z,0.70
2022-09-04T08:12:39.086Z,0.87
2022-09-04T08:15:20.332Z,0.97
2022-09-04T08:17:59.011Z,0.90
2022-09-04T08:20:42.036Z,0.80
2022-09-04T08:23:25.577Z,0.87
2022-09-04T08:26:06.631Z,0.60
2022-09-04T08:28:51.334Z,0.70
2022-09-04T08:31:27.058Z,0.80
2022-09-04T08:34:08.743Z,0.80
2022-09-04T08:36:46.042Z,0.60
2022-09-04T08:39:21.725Z,0.80
2022-09-04T08:42:13.220Z,0.70
2022-09-04T08:45:23.014Z,0.70
2022-09-04T08:48:19.025Z,0.60
2022-09-04T08:51:08.566Z,0.80
2022-09-04T08:53:57.682Z,0.63
2022-09-04T08:56:30.886Z,0.70
2022-09-04T08:59:29.120Z,0.80
2022-09-04T09:02:27.487Z,0.70
2022-09-04T09:05:16.742Z,1.00
2022-09-04T09:08:08.922Z,0.60
2022-09-04T09:10:43.789Z,0.70
2022-09-04T09:13:37.453Z,0.80
2022-09-04T09:16:20.040Z,0.60
2022-09-04T09:19:06.573Z,0.70
2022-09-04T09:21:44.830Z,0.70
2022-09-04T09:24:35.617Z,0.70
2022-09-04T09:27:31.117Z,0.90
2022-09-04T09:30:08.245Z,0.60
2022-09-04T09:33:06.389Z,0.80
2022-09-04T09:36:06.308Z,0.80
2022-09-04T09:38:55.742Z,0.70
2022-09-04T09:41:53.234Z,0.60
2022-09-04T09:44:48.502Z,0.67
2022-09-04T09:47:37.182Z,0.63
2022-09-04T09:50:22.279Z,0.57
2022-09-04T09:53:28.842Z,0.60
2022-09-04T09:56:25.925Z,0.80
2022-09-04T09:59:11.350Z,0.70
2022-09-04T10:02:05.202Z,0.60
2022-09-04T10:04:55.694Z,0.53
2022-09-04T10:07:54.854Z,0.50
2022-09-04T10:10:46.645Z,0.50
2022-09-04T10:13:44.493Z,0.57
2022-09-04T10:16:42.632Z,0.70
2022-09-04T10:19:40.358Z,0.60
2022-09-04T10:22:28.967Z,0.50
2022-09-04T10:25:32.203Z,0.60
2022-09-04T10:28:16.551Z,0.80
2022-09-04T10:31:12.271Z,0.70
2022-09-04T10:33:50.734Z,0.60
2022-09-04T10:36:29.974Z,0.70
2022-09-04T10:39:29.608Z,0.70
2022-09-04T10:42:12.120Z,0.70
2022-09-04T10:44:46.025Z,0.80
2022-09-04T10:47:28.102Z,0.90
2022-09-04T10:50:13.667Z,0.50
2022-09-04T10:53:10.335Z,0.70
2022-09-04T10:55:58.266Z,0.97
2022-09-04T10:58:33.244Z,1.17
2022-09-04T11:01:23.019Z,0.90
2022-09-04T11:04:20.597Z,1.00
2022-09-04T11:07:10.365Z,0.80
2022-09-04T11:09:50.650Z,0.60
2022-09-04T11:12:48.218Z,0.90
2022-09-04T11:15:32.873Z,0.90
2022-09-04T11:18:22.654Z,0.80
2022-09-04T11:21:13.054Z,0.80
2022-09-04T11:24:10.589Z,0.60
2022-09-04T11:27:08.051Z,0.70
2022-09-04T11:29:55.061Z,0.70
2022-09-04T11:32:44.860Z,0.80
2022-09-04T11:35:42.378Z,1.10
2022-09-04T11:38:18.229Z,0.60
2022-09-04T11:41:16.397Z,0.70
2022-09-04T11:44:10.784Z,0.70
2022-09-04T11:47:01.590Z,0.50
2022-09-04T11:49:44.629Z,0.57
2022-09-04T11:52:22.550Z,0.90
2022-09-04T11:55:19.294Z,0.50
2022-09-04T11:57:59.377Z,0.87
2022-09-04T12:00:33.004Z,0.90
2022-09-04T12:03:18.194Z,0.80
2022-09-04T12:06:04.301Z,0.67
2022-09-04T12:08:54.898Z,1.00
2022-09-04T12:11:42.469Z,0.90
2022-09-04T12:14:23.012Z,0.70
2022-09-04T12:17:15.297Z,0.80
2022-09-04T12:20:08.399Z,0.90
2022-09-04T12:23:01.439Z,0.80
2022-09-04T12:25:53.809Z,0.73
2022-09-04T12:28:51.293Z,0.80
2022-09-04T12:31:42.094Z,0.60
2022-09-04T12:34:33.030Z,1.07
2022-09-04T12:37:27.413Z,0.90
2022-09-04T12:40:24.905Z,1.03
2022-09-04T12:43:02.582Z,0.87
2022-09-04T12:45:40.328Z,0.90
2022-09-04T12:48:16.304Z,0.80
2022-09-04T12:50:52.746Z,0.83
2022-09-04T12:53:48.151Z,1.00
2022-09-04T12:56:29.559Z,0.80
2022-09-04T12:59:16.221Z,0.70
2022-09-04T13:01:57.507Z,0.60
2022-09-04T13:04:33.926Z,1.00
2022-09-04T13:07:15.942Z,1.20
2022-09-04T13:09:55.775Z,1.00
2022-09-04T13:12:31.657Z,0.80
2022-09-04T13:15:13.264Z,0.97
2022-09-04T13:17:51.042Z,0.80
2022-09-04T13:20:26.715Z,0.80
2022-09-04T13:23:08.109Z,0.93
2022-09-04T13:25:52.330Z,0.67
2022-09-04T13:28:37.763Z,0.60
2022-09-04T13:31:33.156Z,1.23
2022-09-04T13:34:13.190Z,1.00
2022-09-04T13:36:49.480Z,0.93
2022-09-04T13:39:33.278Z,0.90
2022-09-04T13:42:15.061Z,0.97
2022-09-04T13:44:57.631Z,0.87
2022-09-04T13:47:32.529Z,0.73
2022-09-04T13:50:08.368Z,0.83
2022-09-04T13:52:40.063Z,1.10
2022-09-04T13:55:13.938Z,0.90
2022-09-04T13:57:47.766Z,1.20
2022-09-04T14:00:16.908Z,1.00
2022-09-04T14:02:47.455Z,1.00
2022-09-04T14:05:23.153Z,0.90
2022-09-04T14:07:59.743Z,0.87
2022-09-04T14:10:39.231Z,0.70
2022-09-04T14:13:23.001Z,1.00
2022-09-04T14:16:03.717Z,0.80
2022-09-04T14:18:45.531Z,0.97
2022-09-04T14:21:23.894Z,1.00
2022-09-04T14:24:03.168Z,0.63
2022-09-04T14:26:41.495Z,1.10
2022-09-04T14:29:21.018Z,0.80
2022-09-04T14:32:02.616Z,1.20
2022-09-04T14:34:43.779Z,0.73
2022-09-04T14:37:26.083Z,1.23
2022-09-04T14:40:03.395Z,0.97
2022-09-04T14:42:42.893Z,1.00
2022-09-04T14:45:23.187Z,0.70
2022-09-04T14:47:55.515Z,1.30
2022-09-04T14:50:29.302Z,0.90
2022-09-04T14:53:00.702Z,1.10
2022-09-04T14:55:31.222Z,1.10
2022-09-04T14:58:06.080Z,0.80
2022-09-04T15:00:51.295Z,0.90
2022-09-04T15:03:24.414Z,0.90
2022-09-04T15:05:56.832Z,1.50
2022-09-04T15:08:29.434Z,1.47
2022-09-04T15:11:00.629Z,1.13
2022-09-04T15:13:47.343Z,0.77
2022-09-04T15:16:21.030Z,0.97
2022-09-04T15:18:56.772Z,1.20
2022-09-04T15:21:34.606Z,1.40
2022-09-04T15:24:10.656Z,0.93
2022-09-04T15:26:46.600Z,1.17
2022-09-04T15:29:21.641Z,1.50
2022-09-04T15:31:59.477Z,1.17
2022-09-04T15:34:29.276Z,1.10
2022-09-04T15:37:10.394Z,1.00
2022-09-04T15:39:48.338Z,0.83
2022-09-04T15:42:35.254Z,1.20
2022-09-04T15:45:10.603Z,1.00
2022-09-04T15:48:00.724Z,1.37
2022-09-04T15:50:34.314Z,0.97
2022-09-04T15:53:16.512Z,1.30
2022-09-04T15:55:48.276Z,1.67
2022-09-04T15:58:19.513Z,1.10
2022-09-04T16:01:16.790Z,1.30
2022-09-04T16:03:55.670Z,1.30
2022-09-04T16:06:31.560Z,1.67
2022-09-04T16:09:06.480Z,0.90
2022-09-04T16:11:38.938Z,1.27
2022-09-04T16:14:11.465Z,0.97
2022-09-04T16:16:44.251Z,1.23
2022-09-04T16:19:23.662Z,1.00
2022-09-04T16:21:59.595Z,1.10
2022-09-04T16:24:34.827Z,1.80
2022-09-04T16:27:08.034Z,1.70
2022-09-04T16:29:38.998Z,1.80
2022-09-04T16:32:10.685Z,1.30
2022-09-04T16:34:45.753Z,1.37
2022-09-04T16:37:18.973Z,1.13
2022-09-04T16:40:00.077Z,0.93
2022-09-04T16:42:38.181Z,0.90
2022-09-04T16:45:13.467Z,0.90
2022-09-04T16:47:46.986Z,0.87
2022-09-04T16:50:24.794Z,1.13
2022-09-04T16:53:13.390Z,1.27
2022-09-04T16:55:54.619Z,0.93
2022-09-04T16:58:39.810Z,1.43
2022-09-04T17:01:15.479Z,1.83
2022-09-04T17:04:13.594Z,1.50
2022-09-04T17:06:54.070Z,1.07
2022-09-04T17:09:27.655Z,0.90
2022-09-04T17:12:01.328Z,1.10
2022-09-04T17:14:36.047Z,1.10
2022-09-04T17:17:30.708Z,0.97
2022-09-04T17:20:05.399Z,1.20
2022-09-04T17:28:55.171Z,1.00
2022-09-04T17:29:08.059Z,1.23
2022-09-04T17:29:19.623Z,1.30
2022-09-04T17:31:25.763Z,1.70
2022-09-04T17:40:06.226Z,1.43
2022-09-04T17:40:55.263Z,1.27
2022-09-04T17:41:28.922Z,2.00
2022-09-04T17:43:22.198Z,1.47
2022-09-04T17:45:46.002Z,0.97
2022-09-04T17:48:24.032Z,1.30
2022-09-04T17:50:55.438Z,1.60
2022-09-04T17:53:33.228Z,1.50
2022-09-04T17:56:07.989Z,1.30
2022-09-04T17:58:41.310Z,1.37
2022-09-04T18:01:17.899Z,1.17
2022-09-04T18:04:19.967Z,1.63
2022-09-04T18:06:50.833Z,1.30
2022-09-04T18:09:26.971Z,1.10
2022-09-04T18:12:07.201Z,1.63
2022-09-04T18:14:42.213Z,1.33
2022-09-04T18:17:17.074Z,1.37
2022-09-04T18:19:46.784Z,1.47
2022-09-04T18:22:33.370Z,2.17
2022-09-04T18:25:16.202Z,1.60
2022-09-04T18:28:11.405Z,1.20
2022-09-04T18:37:06.584Z,1.77
2022-09-04T18:37:20.593Z,1.50
2022-09-04T18:37:22.285Z,1.93
2022-09-04T18:39:41.374Z,1.80
2022-09-04T18:50:25.619Z,1.53
2022-09-04T18:50:37.417Z,1.90
2022-09-04T18:50:41.034Z,1.20
2022-09-04T18:51:18.712Z,1.60
2022-09-04T18:53:51.290Z,1.80
2022-09-04T18:56:23.307Z,1.50
2022-09-04T18:58:59.302Z,2.20
2022-09-04T19:01:33.349Z,1.57
2022-09-04T19:04:31.909Z,2.03
2022-09-04T19:07:06.845Z,1.90
2022-09-04T19:09:59.001Z,2.00
2022-09-04T19:12:46.599Z,1.97
2022-09-04T19:15:37.030Z,1.77
2022-09-04T19:18:15.469Z,1.93
2022-09-04T19:20:50.046Z,1.63
2022-09-04T19:23:27.095Z,2.30
2022-09-04T19:26:00.116Z,2.27
2022-09-04T19:28:40.563Z,1.50
2022-09-04T19:31:27.716Z,1.90
2022-09-04T19:34:02.727Z,1.37
2022-09-04T19:36:37.640Z,1.97
2022-09-04T19:45:54.749Z,1.90
2022-09-04T19:45:59.531Z,2.00
2022-09-04T19:46:00.908Z,1.83
2022-09-04T19:48:11.410Z,1.83
2022-09-04T19:53:23.291Z,2.33
2022-09-04T19:53:44.941Z,2.58
2022-09-04T19:56:26.859Z,2.47
2022-09-04T19:58:58.678Z,2.50
2022-09-04T20:01:32.203Z,1.80
2022-09-04T20:04:03.465Z,2.27
2022-09-04T20:06:36.324Z,2.10
2022-09-04T20:09:15.269Z,2.20
2022-09-04T20:11:48.603Z,1.97
2022-09-04T20:14:25.074Z,2.00
2022-09-04T20:17:04.172Z,1.80
2022-09-04T20:19:40.479Z,2.00
2022-09-04T20:22:16.567Z,2.30
2022-09-04T20:25:01.573Z,1.60
2022-09-04T20:27:37.591Z,2.37
2022-09-04T20:30:12.014Z,2.30
2022-09-04T20:32:56.359Z,2.20
2022-09-04T20:35:33.767Z,2.03
2022-09-04T20:38:23.453Z,2.07
2022-09-04T20:40:56.187Z,1.80
2022-09-04T20:43:32.623Z,2.33
2022-09-04T20:49:41.705Z,2.23
2022-09-04T20:52:50.475Z,2.13
2022-09-04T20:52:55.062Z,1.80
2022-09-04T20:55:05.819Z,2.13
2022-09-04T21:03:06.267Z,2.27
2022-09-04T21:03:24.717Z,2.05
2022-09-04T21:03:46.706Z,2.33
2022-09-04T21:06:28.767Z,2.00
2022-09-04T21:09:07.278Z,2.03
2022-09-04T21:11:41.549Z,2.35
2022-09-04T21:14:17.718Z,1.70
2022-09-04T21:17:02.719Z,1.90
2022-09-04T21:20:18.119Z,2.10
2022-09-04T21:23:03.979Z,2.65
2022-09-04T21:25:41.832Z,2.40
2022-09-04T21:28:29.822Z,2.00
2022-09-04T21:31:09.340Z,2.40
2022-09-04T21:33:44.333Z,1.70
2022-09-04T21:36:26.136Z,2.30
2022-09-04T21:39:19.710Z,2.40
2022-09-04T21:42:04.356Z,1.73
2022-09-04T21:45:04.051Z,2.40
2022-09-04T21:47:50.719Z,2.05
2022-09-04T21:50:42.460Z,1.75
2022-09-04T21:53:31.977Z,1.70
2022-09-04T22:02:25.151Z,1.60
2022-09-04T22:02:41.885Z,2.15
2022-09-04T22:02:51.333Z,1.58
2022-09-04T22:05:22.923Z,2.40
2022-09-04T22:12:09.074Z,1.70
2022-09-04T22:13:41.682Z,1.90
2022-09-04T22:13:57.372Z,2.20
2022-09-04T22:16:49.350Z,2.03
2022-09-04T22:19:42.002Z,2.47
2022-09-04T22:22:30.226Z,2.38
2022-09-04T22:25:29.299Z,1.85
2022-09-04T22:28:20.826Z,2.30
2022-09-04T22:31:11.430Z,2.20
2022-09-04T22:34:15.369Z,2.38
2022-09-04T22:37:07.139Z,2.65
2022-09-04T22:39:55.881Z,2.00
2022-09-04T22:42:37.220Z,2.00
2022-09-04T22:45:29.833Z,2.50
2022-09-04T22:48:18.510Z,2.60
2022-09-04T22:50:53.428Z,2.63
2022-09-04T22:53:44.974Z,2.63
2022-09-04T22:56:24.093Z,2.00
2022-09-04T22:59:26.954Z,2.75
2022-09-04T23:02:19.124Z,1.77
2022-09-04T23:05:13.398Z,2.60
2022-09-04T23:13:49.424Z,2.42
2022-09-04T23:13:53.291Z,2.30
2022-09-04T23:14:17.429Z,2.45
2022-09-04T23:17:13.025Z,2.35
2022-09-04T23:26:32.225Z,2.22
2022-09-04T23:26:35.635Z,2.45
2022-09-04T23:26:58.571Z,2.50
2022-09-04T23:29:22.942Z,2.05
2022-09-04T23:32:16.205Z,2.35
2022-09-04T23:35:15.034Z,2.28
2022-09-04T23:38:00.880Z,2.10
2022-09-04T23:40:38.980Z,2.10
2022-09-04T23:43:37.341Z,2.58
2022-09-04T23:46:23.843Z,2.65
2022-09-04T23:49:07.170Z,2.50
2022-09-04T23:51:45.015Z,2.45
2022-09-04T23:54:43.222Z,2.80
2022-09-04T23:57:26.126Z,2.35
